Time;durP1;ratioP1;P1;durP2;ratioP2;P2;SDS_P1;SDS_P2;PMS_P1;PMS_P2;Temp;Humidity;BMP_temperature;BMP_pressure;BME280_temperature;BME280_humidity;BME280_pressure;Samples;Min_cycle;Max_cycle;Signal;HPM_P1;HPM_P2
2021/07/07 00:00:07;;;;;;;;;2.00;2.00;;;;;20.42;45.92;100467.06;5062971;28;45523;-79
2021/07/07 00:02:32;;;;;;;;;3.50;2.50;;;;;20.30;46.34;100452.47;5058417;28;46356;-78
2021/07/07 00:04:57;;;;;;;;;2.75;2.00;;;;;20.44;46.41;100486.38;5076186;28;46231;-79
2021/07/07 00:10:45;;;;;;;;;3.50;1.75;;;;;20.36;46.61;100474.91;5064093;28;45836;-79
2021/07/07 00:13:11;;;;;;;;;1.50;1.50;;;;;20.39;46.58;100488.72;5075102;28;46503;-80
2021/07/07 00:15:37;;;;;;;;;2.50;2.00;;;;;20.28;46.87;100470.47;5075043;28;46169;-78
2021/07/07 00:18:07;;;;;;;;;2.75;2.25;;;;;20.34;46.92;100491.09;5075312;28;45726;-80
2021/07/07 00:20:44;;;;;;;;;2.75;2.75;;;;;20.23;47.07;100477.31;5075381;28;45770;-78
2021/07/07 00:23:10;;;;;;;;;3.00;3.00;;;;;20.29;47.27;100498.72;5075039;28;45692;-80
2021/07/07 00:25:36;;;;;;;;;3.00;1.75;;;;;20.23;47.16;100490.63;5074439;28;47438;-77
2021/07/07 00:28:02;;;;;;;;;2.00;2.00;;;;;20.22;47.21;100503.09;5074752;28;45755;-79
2021/07/07 00:30:28;;;;;;;;;2.50;2.50;;;;;20.18;47.61;100487.66;5075019;28;45653;-78
2021/07/07 00:32:55;;;;;;;;;4.00;2.25;;;;;20.15;47.66;100496.78;5074905;28;46847;-79
2021/07/07 00:35:21;;;;;;;;;3.00;2.00;;;;;20.14;47.45;100495.13;5056290;28;48384;-81
2021/07/07 00:37:46;;;;;;;;;2.25;2.25;;;;;20.10;47.44;100497.31;5056347;28;45685;-78
2021/07/07 00:40:13;;;;;;;;;4.75;3.75;;;;;20.11;47.66;100498.16;5073692;28;45693;-80
2021/07/07 00:42:38;;;;;;;;;2.50;2.50;;;;;20.11;47.83;100503.47;5074724;28;46457;-79
2021/07/07 00:45:04;;;;;;;;;3.00;2.75;;;;;19.98;48.00;100488.06;5074287;28;46183;-79
2021/07/07 00:47:30;;;;;;;;;2.75;2.50;;;;;20.05;47.87;100494.34;5074702;28;45555;-78
2021/07/07 00:49:55;;;;;;;;;3.50;3.00;;;;;19.99;48.20;100492.38;5074824;28;45870;-79
2021/07/07 00:55:43;;;;;;;;;2.00;2.00;;;;;19.85;48.32;100482.47;5074142;28;45870;-80
2021/07/07 00:58:13;;;;;;;;;2.50;1.50;;;;;19.91;48.25;100489.75;5074620;28;45539;-79
2021/07/07 01:00:38;;;;;;;;;3.00;3.00;;;;;19.87;48.13;100487.59;5074774;28;45709;-79
2021/07/07 01:03:05;;;;;;;;;4.00;2.50;;;;;19.84;48.31;100482.63;5073045;28;46408;-80
2021/07/07 01:05:30;;;;;;;;;3.75;3.00;;;;;19.95;48.57;100492.91;5056051;28;47698;-81
2021/07/07 01:11:17;;;;;;;;;2.25;2.25;;;;;19.86;48.55;100491.28;5068763;28;45571;-79
2021/07/07 01:13:43;;;;;;;;;2.50;2.50;;;;;19.84;48.76;100487.94;5074814;28;46683;-81
2021/07/07 01:16:08;;;;;;;;;2.50;2.25;;;;;19.80;48.93;100492.78;5074261;28;45681;-78
2021/07/07 01:18:35;;;;;;;;;3.50;2.50;;;;;19.80;49.32;100499.94;5074485;28;45772;-80
2021/07/07 01:21:01;;;;;;;;;2.25;1.50;;;;;19.73;49.18;100488.31;5074254;28;45695;-80
2021/07/07 01:23:26;;;;;;;;;3.75;2.50;;;;;19.63;49.20;100469.91;5073961;28;47453;-77
2021/07/07 01:25:52;;;;;;;;;2.25;2.25;;;;;19.75;49.13;100494.31;5074056;28;45851;-80
2021/07/07 01:28:18;;;;;;;;;2.75;2.25;;;;;19.63;49.68;100473.41;5074180;28;45572;-78
2021/07/07 01:30:44;;;;;;;;;3.00;2.25;;;;;19.70;49.31;100486.84;5074523;28;45578;-79
2021/07/07 01:33:09;;;;;;;;;4.00;3.00;;;;;19.66;49.45;100489.00;5074283;28;45531;-77
2021/07/07 01:35:35;;;;;;;;;2.75;2.75;;;;;19.52;49.71;100460.47;5073819;28;46963;-79
2021/07/07 01:41:25;;;;;;;;;3.25;3.00;;;;;19.55;50.27;100493.84;5074185;28;45578;-80
2021/07/07 01:43:50;;;;;;;;;4.00;4.00;;;;;19.54;50.47;100503.63;5073775;28;46527;-79
2021/07/07 01:46:16;;;;;;;;;4.50;4.00;;;;;19.46;50.35;100484.22;5074054;28;45543;-79
2021/07/07 01:48:41;;;;;;;;;4.75;3.50;;;;;19.49;50.48;100505.97;5073883;28;45525;-80
2021/07/07 01:51:06;;;;;;;;;3.25;2.75;;;;;19.48;50.04;100504.34;5076204;28;45533;-80
2021/07/07 01:53:32;;;;;;;;;4.00;4.00;;;;;19.47;50.77;100505.34;5065368;28;47478;-80
2021/07/07 01:55:57;;;;;;;;;3.00;3.00;;;;;19.45;50.39;100509.97;5084009;28;45636;-79
2021/07/07 01:58:22;;;;;;;;;3.00;3.00;;;;;19.44;50.30;100507.44;5084350;28;45805;-78
2021/07/07 02:00:48;;;;;;;;;4.25;4.00;;;;;19.41;50.89;100498.00;5084556;28;45707;-80
2021/07/07 02:03:13;;;;;;;;;3.25;3.25;;;;;19.33;50.56;100487.38;5084662;28;45626;-79
2021/07/07 02:05:40;;;;;;;;;3.50;3.50;;;;;19.35;50.86;100495.19;5082770;28;45671;-79
2021/07/07 02:11:27;;;;;;;;;3.00;3.00;;;;;19.25;50.78;100490.06;5077094;28;45746;-80
2021/07/07 02:13:53;;;;;;;;;4.75;3.75;;;;;19.24;51.58;100499.84;5077989;28;47475;-80
2021/07/07 02:16:18;;;;;;;;;5.50;5.00;;;;;19.20;51.42;100497.69;5077685;28;45926;-80
2021/07/07 02:18:43;;;;;;;;;4.00;3.00;;;;;19.17;51.69;100501.50;5077352;28;45649;-80
2021/07/07 02:21:09;;;;;;;;;4.00;3.00;;;;;19.15;51.43;100506.16;5077145;28;45778;-77
2021/07/07 02:23:35;;;;;;;;;2.75;2.75;;;;;19.13;52.08;100500.19;5077042;28;45867;-80
2021/07/07 02:26:00;;;;;;;;;5.25;3.75;;;;;19.11;51.97;100499.50;5076968;28;46355;-80
2021/07/07 02:28:26;;;;;;;;;5.00;4.00;;;;;19.08;51.82;100494.53;5076891;28;45799;-78
2021/07/07 02:30:56;;;;;;;;;3.00;3.00;;;;;19.09;51.63;100504.19;5077136;28;45674;-77
2021/07/07 02:33:23;;;;;;;;;4.00;3.00;;;;;19.06;52.30;100498.34;5076816;28;45654;-77
2021/07/07 02:35:49;;;;;;;;;5.50;4.50;;;;;19.04;52.25;100489.72;5076578;28;46361;-80
2021/07/07 02:41:36;;;;;;;;;4.75;3.00;;;;;18.98;53.11;100506.31;5076606;28;45543;-79
2021/07/07 02:44:01;;;;;;;;;3.25;3.25;;;;;18.90;53.27;100501.84;5076727;28;46401;-78
2021/07/07 02:46:26;;;;;;;;;3.50;3.25;;;;;18.91;52.99;100510.63;5076324;28;46055;-78
2021/07/07 02:48:52;;;;;;;;;5.25;4.00;;;;;18.84;53.39;100503.31;5076799;28;45713;-81
2021/07/07 02:51:17;;;;;;;;;4.00;3.00;;;;;18.80;53.92;100503.81;5076742;28;45553;-80
2021/07/07 02:53:42;;;;;;;;;4.00;3.00;;;;;18.73;53.54;100502.84;5076440;28;46317;-80
2021/07/07 02:56:08;;;;;;;;;4.00;3.00;;;;;18.70;53.32;100501.31;5076358;28;45715;-80
2021/07/07 02:58:33;;;;;;;;;5.00;3.75;;;;;18.68;53.38;100498.00;5076427;28;45655;-79
2021/07/07 03:00:59;;;;;;;;;3.50;3.00;;;;;18.65;53.37;100503.66;5076597;28;45533;-79
2021/07/07 03:03:25;;;;;;;;;4.25;3.25;;;;;18.64;53.68;100511.75;5075717;28;45603;-79
2021/07/07 03:05:54;;;;;;;;;4.75;3.25;;;;;18.62;53.94;100505.81;5076042;28;45986;-80
2021/07/07 03:11:41;;;;;;;;;4.75;4.25;;;;;18.37;54.49;100492.44;5076012;28;45823;-78
2021/07/07 03:14:07;;;;;;;;;4.00;4.00;;;;;18.49;54.80;100516.00;5076241;28;45674;-79
2021/07/07 03:16:32;;;;;;;;;4.00;4.00;;;;;18.45;55.03;100518.16;5076162;28;45623;-78
2021/07/07 03:18:58;;;;;;;;;3.00;3.00;;;;;18.40;54.45;100508.03;5076035;28;46092;-78
2021/07/07 03:21:23;;;;;;;;;3.75;3.00;;;;;18.23;54.64;100481.63;5076104;28;45633;-78
2021/07/07 03:27:10;;;;;;;;;4.00;3.50;;;;;18.37;55.30;100518.97;5075514;28;45996;-80
2021/07/07 03:29:35;;;;;;;;;4.50;4.00;;;;;18.34;54.91;100514.00;5075983;28;45550;-78
2021/07/07 03:32:00;;;;;;;;;4.50;4.25;;;;;18.35;54.99;100525.44;5076009;28;45723;-77
2021/07/07 03:34:26;;;;;;;;;4.50;3.00;;;;;18.31;55.35;100518.78;5075407;28;46530;-80
2021/07/07 03:36:51;;;;;;;;;4.00;3.50;;;;;18.36;54.91;100527.91;5075614;28;45780;-79
2021/07/07 03:39:16;;;;;;;;;4.75;4.25;;;;;18.36;54.98;100527.91;5075716;28;45700;-79
2021/07/07 03:41:42;;;;;;;;;4.00;3.00;;;;;18.32;55.58;100518.63;5057564;28;45892;-79
2021/07/07 03:44:07;;;;;;;;;4.00;4.00;;;;;18.31;55.04;100519.59;5075306;28;47454;-80
2021/07/07 03:46:33;;;;;;;;;5.00;4.75;;;;;18.34;55.54;100535.22;5075012;28;46242;-80
2021/07/07 03:48:58;;;;;;;;;6.50;5.00;;;;;18.34;55.17;100529.91;5056354;28;45794;-80
2021/07/07 03:51:24;;;;;;;;;4.75;4.50;;;;;18.26;55.87;100521.91;5075613;28;45529;-80
2021/07/07 03:57:11;;;;;;;;;5.25;4.00;;;;;18.27;55.47;100523.56;5074962;28;45738;-80
2021/07/07 03:59:36;;;;;;;;;5.00;4.00;;;;;18.25;56.09;100524.72;5056874;28;45682;-79
2021/07/07 04:02:02;;;;;;;;;6.50;6.25;;;;;18.27;55.53;100526.22;5075629;28;45494;-81
2021/07/07 04:04:27;;;;;;;;;5.50;4.00;;;;;18.24;55.58;100533.69;5075859;28;45629;-79
2021/07/07 04:13:17;;;;;;;;;4.00;4.00;;;;;18.25;56.08;100541.47;5069473;28;45572;-79
2021/07/07 04:15:42;;;;;;;;;8.25;6.75;;;;;18.25;55.67;100544.13;5077421;28;45862;-79
2021/07/07 04:18:09;;;;;;;;;15.75;13.25;;;;;18.28;55.83;100548.28;5082221;28;45719;-78
2021/07/07 04:20:35;;;;;;;;;5.25;4.00;;;;;18.30;55.67;100552.41;5082455;28;45618;-76
2021/07/07 04:23:00;;;;;;;;;5.75;5.75;;;;;18.32;55.56;100547.78;5082404;28;45756;-78
2021/07/07 04:25:26;;;;;;;;;6.00;5.00;;;;;18.34;56.08;100555.59;5081454;28;45638;-80
2021/07/07 04:27:51;;;;;;;;;5.50;4.75;;;;;18.35;55.58;100558.06;5078699;28;46177;-80
2021/07/07 04:30:18;;;;;;;;;15.50;15.00;;;;;18.33;55.86;100556.59;5058737;28;45649;-80
2021/07/07 04:32:45;;;;;;;;;5.00;4.00;;;;;18.35;56.31;100563.38;5076976;28;45728;-77
2021/07/07 04:35:13;;;;;;;;;6.25;4.50;;;;;18.12;55.94;100532.31;5075476;28;46742;-77
2021/07/07 04:37:39;;;;;;;;;8.00;6.75;;;;;18.31;55.92;100564.69;5075877;28;46419;-77
2021/07/07 04:40:06;;;;;;;;;4.00;4.00;;;;;18.41;56.23;100576.00;5075573;28;45735;-79
2021/07/07 04:42:31;;;;;;;;;4.00;4.00;;;;;18.44;55.85;100577.53;5075081;28;45576;-80
2021/07/07 04:44:56;;;;;;;;;6.00;5.00;;;;;18.44;55.70;100577.53;5074287;28;46518;-79
2021/07/07 04:47:22;;;;;;;;;4.50;4.50;;;;;18.45;55.94;100579.19;5074073;28;46087;-78
2021/07/07 04:49:47;;;;;;;;;3.00;3.00;;;;;18.51;55.94;100588.34;5074326;28;45604;-78
2021/07/07 04:52:12;;;;;;;;;3.00;3.00;;;;;18.44;56.25;100577.53;5074427;28;45546;-79
2021/07/07 04:57:59;;;;;;;;;4.25;3.25;;;;;18.49;56.23;100587.66;5074205;28;46086;-77
2021/07/07 05:00:25;;;;;;;;;5.00;5.00;;;;;18.49;56.69;100599.09;5074519;28;45605;-79
2021/07/07 05:02:51;;;;;;;;;5.00;4.25;;;;;18.42;56.72;100590.94;5074507;28;45855;-80
2021/07/07 05:05:20;;;;;;;;;4.50;4.50;;;;;18.49;56.36;100599.09;5073877;28;47537;-77
2021/07/07 05:07:46;;;;;;;;;5.75;4.00;;;;;18.48;56.68;100605.38;5074158;28;46230;-80
2021/07/07 05:10:13;;;;;;;;;5.00;4.00;;;;;18.50;56.50;100607.88;5074044;28;45708;-79
2021/07/07 05:12:39;;;;;;;;;5.00;5.00;;;;;18.30;56.61;100578.94;5074463;28;45640;-80
2021/07/07 05:15:08;;;;;;;;;7.00;5.50;;;;;18.37;56.62;100582.63;5055768;28;46603;-79
2021/07/07 05:17:33;;;;;;;;;4.25;4.25;;;;;18.48;57.35;100601.91;5074236;28;45812;-79
2021/07/07 05:19:59;;;;;;;;;7.75;6.00;;;;;18.47;57.16;100609.03;5074408;28;45608;-78
2021/07/07 05:22:28;;;;;;;;;5.00;4.00;;;;;18.48;57.23;100609.88;5074260;28;45680;-79
2021/07/07 05:28:15;;;;;;;;;8.50;6.50;;;;;18.38;57.34;100604.69;5077580;28;45798;-79
2021/07/07 05:30:41;;;;;;;;;7.00;6.25;;;;;18.41;57.11;100607.00;5077894;28;45568;-79
2021/07/07 05:33:08;;;;;;;;;5.50;3.75;;;;;18.50;57.42;100618.50;5077821;28;45696;-79
2021/07/07 05:35:35;;;;;;;;;7.00;4.75;;;;;18.52;57.51;100617.34;5077812;28;45596;-79
2021/07/07 05:38:01;;;;;;;;;4.25;4.00;;;;;18.50;57.07;100608.72;5077368;28;46440;-79
2021/07/07 05:40:27;;;;;;;;;6.50;5.75;;;;;18.56;57.33;100610.78;5077417;28;45518;-78
2021/07/07 05:42:52;;;;;;;;;6.25;4.00;;;;;18.62;57.04;100622.56;5078017;28;45552;-78
2021/07/07 05:45:23;;;;;;;;;5.75;5.00;;;;;18.65;57.25;100616.94;5077703;28;45748;-80
2021/07/07 05:47:49;;;;;;;;;5.00;5.00;;;;;18.68;56.88;100625.41;5077667;28;46211;-78
2021/07/07 05:50:16;;;;;;;;;6.00;5.00;;;;;18.60;57.42;100611.28;5077862;28;45635;-79
2021/07/07 05:52:42;;;;;;;;;15.50;12.00;;;;;18.67;56.91;100614.97;5077893;28;45793;-79
2021/07/07 05:58:29;;;;;;;;;4.25;4.25;;;;;18.83;57.07;100628.28;5077168;28;45783;-79
2021/07/07 06:00:54;;;;;;;;;6.00;5.00;;;;;18.82;57.06;100626.63;5077201;28;45713;-80
2021/07/07 06:03:20;;;;;;;;;10.00;9.00;;;;;18.83;57.27;100621.16;5076116;28;45810;-80
2021/07/07 06:05:45;;;;;;;;;6.75;6.00;;;;;18.88;57.50;100628.63;5077016;28;46418;-80
2021/07/07 06:08:11;;;;;;;;;7.25;6.00;;;;;18.95;57.19;100644.75;5076971;28;46935;-79
2021/07/07 06:10:36;;;;;;;;;6.50;5.75;;;;;18.88;57.11;100633.94;5077385;28;45629;-78
2021/07/07 06:13:02;;;;;;;;;5.75;5.25;;;;;18.82;57.23;100623.97;5077012;28;45684;-79
2021/07/07 06:15:28;;;;;;;;;6.00;5.00;;;;;18.96;57.80;100649.03;5077305;28;46414;-80
2021/07/07 06:17:54;;;;;;;;;4.75;4.75;;;;;18.95;57.47;100652.72;5058389;28;46057;-79
2021/07/07 06:20:19;;;;;;;;;5.75;5.75;;;;;19.00;57.52;100650.41;5077106;28;45645;-79
2021/07/07 06:22:45;;;;;;;;;6.50;4.50;;;;;18.98;57.66;100642.59;5077492;28;45740;-78
2021/07/07 06:28:32;;;;;;;;;5.50;4.25;;;;;19.07;57.70;100651.38;5076511;28;45753;-78
2021/07/07 06:30:57;;;;;;;;;7.00;6.00;;;;;19.06;57.42;100645.25;5077017;28;45516;-79
2021/07/07 06:33:23;;;;;;;;;7.00;7.00;;;;;19.05;57.13;100643.59;5076904;28;45721;-78
2021/07/07 06:35:48;;;;;;;;;7.00;6.75;;;;;19.07;57.46;100638.94;5076490;28;45936;-79
2021/07/07 06:38:14;;;;;;;;;6.00;5.50;;;;;19.07;57.40;100644.25;5075886;28;45769;-77
2021/07/07 06:44:00;;;;;;;;;7.25;5.50;;;;;19.16;57.48;100653.09;5079833;28;45545;-77
2021/07/07 06:46:26;;;;;;;;;6.75;6.50;;;;;19.15;57.48;100656.75;5082196;28;45853;-78
2021/07/07 06:48:52;;;;;;;;;6.50;6.50;;;;;19.19;57.48;100660.72;5081343;28;45573;-77
2021/07/07 06:51:18;;;;;;;;;7.00;6.50;;;;;19.09;57.15;100639.63;5081453;28;45643;-80
2021/07/07 06:53:43;;;;;;;;;6.50;5.75;;;;;19.23;57.12;100654.09;5082925;28;45496;-80
2021/07/07 06:56:08;;;;;;;;;7.00;6.00;;;;;19.31;56.98;100664.72;5081565;28;46074;-79
2021/07/07 06:58:34;;;;;;;;;6.00;6.00;;;;;19.35;57.19;100659.91;5079954;28;45674;-80
2021/07/07 07:01:00;;;;;;;;;5.50;5.00;;;;;19.39;56.72;100674.53;5060559;28;45641;-80
2021/07/07 07:03:25;;;;;;;;;8.50;5.75;;;;;19.32;57.29;100652.28;5079642;28;45625;-80
2021/07/07 07:05:51;;;;;;;;;6.00;5.25;;;;;19.42;57.21;100674.22;5079151;28;45775;-79
2021/07/07 07:08:18;;;;;;;;;7.25;5.75;;;;;19.46;56.69;100686.19;5079905;28;45617;-80
2021/07/07 07:14:08;;;;;;;;;6.25;5.75;;;;;19.50;56.74;100683.03;5067619;28;45900;-81
2021/07/07 07:16:34;;;;;;;;;6.50;5.00;;;;;19.49;56.61;100685.84;5077646;28;46386;-79
2021/07/07 07:18:59;;;;;;;;;5.00;4.75;;;;;19.48;56.59;100677.09;5077965;28;46155;-79
2021/07/07 07:21:25;;;;;;;;;5.75;4.75;;;;;19.57;56.78;100692.03;5077122;28;45665;-81
2021/07/07 07:23:50;;;;;;;;;6.50;5.75;;;;;19.54;56.67;100684.38;5076636;28;45547;-81
2021/07/07 07:29:41;;;;;;;;;6.50;6.25;;;;;19.64;56.60;100697.53;5076106;28;45745;-82
2021/07/07 07:32:07;;;;;;;;;8.00;6.00;;;;;19.62;56.47;100694.19;5075807;28;45590;-81
2021/07/07 07:34:33;;;;;;;;;8.00;7.75;;;;;19.63;56.16;100702.00;5041194;28;45538;-81
2021/07/07 07:37:04;;;;;;;;;5.00;5.00;;;;;19.67;56.00;100707.81;5076071;28;45490;-80
2021/07/07 07:39:40;;;;;;;;;9.25;6.50;;;;;19.70;56.19;100720.78;5058401;28;45547;-80
2021/07/07 07:42:10;;;;;;;;;4.25;4.25;;;;;19.73;55.98;100719.63;5057633;28;46301;-81
2021/07/07 07:44:38;;;;;;;;;6.25;4.75;;;;;19.73;55.66;100715.13;5076117;28;45525;-81
2021/07/07 07:47:04;;;;;;;;;5.00;4.75;;;;;19.72;55.84;100710.81;5075271;28;46484;-81
2021/07/07 07:49:29;;;;;;;;;6.00;5.00;;;;;19.74;55.82;100718.63;5072871;28;45736;-81
2021/07/07 07:51:58;;;;;;;;;5.75;4.75;;;;;19.75;55.81;100715.81;5057662;28;45664;-80
2021/07/07 07:54:25;;;;;;;;;6.25;6.00;;;;;19.66;56.16;100699.00;5057535;28;45548;-79
2021/07/07 07:56:51;;;;;;;;;7.25;6.25;;;;;19.76;55.80;100713.97;5075519;28;46499;-80
2021/07/07 07:59:17;;;;;;;;;7.00;6.25;;;;;19.73;55.71;100704.50;5075548;28;45615;-81
2021/07/07 08:01:42;;;;;;;;;5.75;5.25;;;;;19.83;55.72;100725.59;5075777;28;45672;-82
2021/07/07 08:04:08;;;;;;;;;6.75;6.00;;;;;19.86;55.90;100725.28;5076061;28;45774;-81
2021/07/07 08:06:34;;;;;;;;;8.00;7.00;;;;;19.89;55.72;100719.63;5075878;28;45726;-81
2021/07/07 08:09:00;;;;;;;;;6.50;6.00;;;;;19.91;55.64;100722.97;5075962;28;45796;-82
2021/07/07 08:14:50;;;;;;;;;5.25;5.00;;;;;19.99;55.62;100734.41;5068174;28;45690;-80
2021/07/07 08:17:19;;;;;;;;;7.00;6.50;;;;;20.04;55.25;100733.91;5075362;28;46663;-81
2021/07/07 08:19:45;;;;;;;;;6.50;5.50;;;;;20.04;55.05;100732.09;5075502;28;46148;-80
2021/07/07 08:22:11;;;;;;;;;5.75;5.50;;;;;20.05;55.36;100741.72;5075355;28;45513;-80
2021/07/07 08:24:36;;;;;;;;;6.00;5.00;;;;;20.15;55.00;100738.06;5056829;28;45877;-80
2021/07/07 08:27:03;;;;;;;;;6.00;5.00;;;;;20.19;54.55;100736.75;5075136;28;45571;-82
2021/07/07 08:29:28;;;;;;;;;5.00;4.75;;;;;20.16;54.83;100729.91;5075290;28;45712;-81
2021/07/07 08:31:54;;;;;;;;;4.75;4.25;;;;;20.17;54.84;100720.94;5075161;28;45806;-80
2021/07/07 08:34:20;;;;;;;;;3.00;3.00;;;;;20.24;54.31;100740.56;5075274;28;45813;-80
2021/07/07 08:36:45;;;;;;;;;5.00;4.75;;;;;20.25;54.58;100733.38;5074601;28;45797;-82
2021/07/07 08:39:11;;;;;;;;;4.75;4.00;;;;;20.32;54.51;100745.06;5075030;28;45707;-82
2021/07/07 08:44:58;;;;;;;;;4.00;4.00;;;;;20.44;54.27;100751.69;5074807;28;45594;-81
2021/07/07 08:47:23;;;;;;;;;4.25;4.00;;;;;20.51;54.08;100763.34;5074841;28;46309;-81
2021/07/07 08:49:49;;;;;;;;;6.25;5.50;;;;;20.57;54.01;100754.66;5075041;28;45572;-80
2021/07/07 08:52:16;;;;;;;;;4.00;4.00;;;;;20.59;54.04;100741.19;5074817;28;45700;-81
2021/07/07 08:54:46;;;;;;;;;4.50;3.00;;;;;20.72;53.65;100760.97;5075336;28;45615;-82
2021/07/07 08:57:11;;;;;;;;;4.50;3.25;;;;;20.73;53.80;100735.16;5075192;28;45496;-82
2021/07/07 08:59:37;;;;;;;;;4.50;4.00;;;;;20.82;53.30;100747.44;5074818;28;45562;-82
2021/07/07 09:02:04;;;;;;;;;5.00;4.25;;;;;20.90;53.28;100764.22;5074799;28;45732;-80
2021/07/07 09:04:30;;;;;;;;;5.00;3.25;;;;;20.96;52.95;100757.38;5075719;28;45604;-79
2021/07/07 09:07:01;;;;;;;;;4.25;4.25;;;;;21.00;52.94;100761.34;5075457;28;47404;-80
2021/07/07 09:09:40;;;;;;;;;4.75;4.50;;;;;21.04;53.00;100757.34;5075175;28;45906;-80
2021/07/07 09:12:24;;;;;;;;;5.00;4.00;;;;;21.08;53.02;100758.66;5074859;28;46216;-80
2021/07/07 09:14:51;;;;;;;;;5.50;5.00;;;;;21.08;52.99;100771.97;5074612;28;45761;-79
2021/07/07 09:17:19;;;;;;;;;5.75;5.75;;;;;21.09;52.79;100770.16;5078289;28;46302;-81
2021/07/07 09:19:45;;;;;;;;;5.50;5.50;;;;;21.05;52.84;100766.19;5078618;28;45838;-80
2021/07/07 09:22:12;;;;;;;;;6.00;4.25;;;;;21.13;52.41;100777.63;5079970;28;45619;-81
2021/07/07 09:24:44;;;;;;;;;6.25;5.25;;;;;21.14;52.74;100776.66;5081803;28;45423;-81
2021/07/07 09:27:11;;;;;;;;;7.50;6.50;;;;;21.15;52.46;100770.31;5081453;28;45633;-80
2021/07/07 09:29:39;;;;;;;;;7.25;7.00;;;;;21.12;52.16;100764.47;5081779;28;45616;-81
2021/07/07 09:32:11;;;;;;;;;5.75;4.75;;;;;21.18;52.25;100777.97;5078433;28;45621;-80
2021/07/07 09:34:38;;;;;;;;;5.00;5.00;;;;;21.19;52.27;100784.97;5058506;28;45500;-81
2021/07/07 09:37:07;;;;;;;;;6.00;5.75;;;;;21.19;52.14;100778.78;5075120;28;45616;-81
2021/07/07 09:39:32;;;;;;;;;4.75;4.75;;;;;21.19;51.91;100776.97;5074206;28;47295;-82
2021/07/07 09:45:22;;;;;;;;;5.75;5.50;;;;;21.15;51.88;100762.34;5074104;28;45534;-81
2021/07/07 09:47:48;;;;;;;;;6.00;4.75;;;;;21.31;52.04;100780.91;5072710;28;45724;-81
2021/07/07 09:50:17;;;;;;;;;8.00;6.50;;;;;21.32;51.51;100776.41;5074147;28;45949;-81
2021/07/07 09:52:43;;;;;;;;;5.00;5.00;;;;;21.45;51.79;100779.31;5074309;28;45442;-80
2021/07/07 09:55:10;;;;;;;;;5.00;5.00;;;;;21.54;51.87;100788.13;5074044;28;45737;-80
2021/07/07 09:57:46;;;;;;;;;5.50;5.50;;;;;21.59;51.55;100780.44;5055401;28;47620;-80
2021/07/07 10:00:22;;;;;;;;;7.25;5.00;;;;;21.63;51.70;100776.41;5073675;28;47050;-80
2021/07/07 10:02:50;;;;;;;;;6.50;6.50;;;;;21.70;51.82;100774.69;5073901;28;45678;-80
2021/07/07 10:05:18;;;;;;;;;7.25;6.00;;;;;21.80;51.93;100777.94;5074171;28;45704;-81
2021/07/07 10:07:44;;;;;;;;;6.50;5.50;;;;;21.87;51.85;100783.38;5073670;28;46439;-79
2021/07/07 10:10:15;;;;;;;;;8.00;7.50;;;;;21.79;51.75;100757.63;5073947;28;46222;-79
2021/07/07 10:12:44;;;;;;;;;6.00;6.00;;;;;21.98;51.71;100783.84;5076938;28;45556;-80
2021/07/07 10:15:14;;;;;;;;;6.75;6.25;;;;;22.07;51.53;100788.13;5077289;28;45830;-80
2021/07/07 10:17:41;;;;;;;;;8.50;7.00;;;;;22.12;51.81;100792.91;5076917;28;47657;-80
2021/07/07 10:20:09;;;;;;;;;6.50;6.00;;;;;22.14;51.50;100790.88;5077214;28;46356;-79
2021/07/07 10:22:36;;;;;;;;;7.75;6.25;;;;;22.13;50.95;100790.03;5076799;28;45612;-79
2021/07/07 10:25:03;;;;;;;;;7.00;6.00;;;;;22.07;51.40;100773.94;5076577;28;45616;-80
2021/07/07 10:27:29;;;;;;;;;8.00;6.50;;;;;22.09;51.16;100774.56;5076637;28;46816;-80
2021/07/07 10:29:55;;;;;;;;;4.25;4.25;;;;;22.08;50.90;100763.06;5076893;28;46713;-79
2021/07/07 10:32:21;;;;;;;;;7.00;6.00;;;;;22.17;51.23;100779.84;5076857;28;45802;-80
2021/07/07 10:34:47;;;;;;;;;7.25;6.75;;;;;22.21;51.22;100783.81;5076801;28;45721;-78
2021/07/07 10:37:14;;;;;;;;;7.00;6.00;;;;;22.25;51.49;100771.75;5076656;28;45482;-79
2021/07/07 10:39:39;;;;;;;;;7.50;6.00;;;;;22.32;51.37;100771.88;5077294;28;45747;-81
2021/07/07 10:45:50;;;;;;;;;6.00;5.75;;;;;22.41;51.57;100768.09;5076354;28;45807;-82
2021/07/07 10:48:25;;;;;;;;;9.00;7.25;;;;;22.48;51.08;100772.56;5058503;28;47655;-82
2021/07/07 10:50:54;;;;;;;;;6.25;5.75;;;;;22.55;51.19;100770.00;5076567;28;46109;-81
2021/07/07 10:53:35;;;;;;;;;9.00;7.00;;;;;22.58;50.78;100765.09;5058027;28;45568;-80
2021/07/07 10:56:03;;;;;;;;;5.50;4.50;;;;;22.67;51.31;100759.69;5057370;28;45635;-80
2021/07/07 10:58:39;;;;;;;;;7.00;6.75;;;;;22.78;50.30;100777.97;5076604;28;45592;-80
2021/07/07 11:01:35;;;;;;;;;7.00;6.00;;;;;22.83;50.44;100778.25;5076259;28;45962;-79
2021/07/07 11:04:04;;;;;;;;;8.00;7.75;;;;;22.88;50.17;100770.50;5076399;28;45967;-80
2021/07/07 11:06:37;;;;;;;;;7.00;7.00;;;;;22.93;50.17;100776.94;5075975;28;45712;-77
2021/07/07 11:09:14;;;;;;;;;6.50;6.50;;;;;22.97;50.34;100770.22;5076174;28;46426;-78
2021/07/07 11:11:42;;;;;;;;;5.25;4.75;;;;;22.95;49.74;100776.75;5076316;28;45639;-77
2021/07/07 11:14:17;;;;;;;;;5.50;5.25;;;;;23.02;50.27;100788.34;5076071;28;45813;-78
2021/07/07 11:17:01;;;;;;;;;6.75;5.75;;;;;22.95;49.82;100766.88;5076571;28;45595;-78
2021/07/07 11:19:50;;;;;;;;;6.50;5.00;;;;;22.95;49.89;100764.22;5076403;28;45694;-78
2021/07/07 11:22:17;;;;;;;;;5.25;5.00;;;;;23.07;49.50;100788.63;5076072;28;45579;-79
2021/07/07 11:24:49;;;;;;;;;6.25;5.75;;;;;23.11;49.93;100792.59;5075518;28;45693;-77
2021/07/07 11:27:15;;;;;;;;;4.75;4.75;;;;;23.08;49.76;100795.63;5075803;28;45880;-79
2021/07/07 11:29:43;;;;;;;;;5.75;5.75;;;;;23.13;49.19;100809.28;5076032;28;46503;-78
2021/07/07 11:32:29;;;;;;;;;6.50;5.50;;;;;23.11;49.23;100803.28;5075786;28;46305;-79
2021/07/07 11:34:59;;;;;;;;;7.00;6.50;;;;;23.07;49.24;100804.66;5076023;28;45725;-78
2021/07/07 11:37:28;;;;;;;;;6.75;5.25;;;;;22.98;49.16;100795.94;5076475;28;45462;-78
2021/07/07 11:40:03;;;;;;;;;6.00;5.25;;;;;23.00;49.42;100811.75;5074677;28;45662;-77
2021/07/07 11:42:30;;;;;;;;;7.75;6.00;;;;;22.92;50.06;100815.38;5077238;28;47273;-78
2021/07/07 11:44:55;;;;;;;;;4.75;4.00;;;;;22.91;50.19;100820.88;5077036;28;45720;-78
2021/07/07 11:47:31;;;;;;;;;5.00;4.25;;;;;22.79;49.84;100814.34;5076051;28;45732;-77
2021/07/07 11:50:10;;;;;;;;;7.75;5.25;;;;;22.74;50.41;100822.06;5076813;28;46489;-77
2021/07/07 11:52:55;;;;;;;;;5.50;5.50;;;;;22.67;50.76;100829.13;5079964;28;46474;-80
2021/07/07 11:58:46;;;;;;;;;5.25;4.25;;;;;22.44;51.67;100834.53;5079486;28;45505;-78
2021/07/07 12:01:25;;;;;;;;;4.75;4.75;;;;;22.37;51.88;100847.75;5079561;28;45677;-77
2021/07/07 12:04:01;;;;;;;;;5.25;5.25;;;;;22.25;51.70;100838.50;5079734;28;45558;-77
2021/07/07 12:06:33;;;;;;;;;5.00;5.00;;;;;22.14;52.15;100841.59;5077273;28;45699;-79
2021/07/07 12:09:00;;;;;;;;;6.50;6.00;;;;;22.04;52.08;100831.16;5077326;28;45608;-78
2021/07/07 12:14:50;;;;;;;;;5.00;5.00;;;;;21.98;51.86;100823.03;5077145;28;46010;-78
2021/07/07 12:17:17;;;;;;;;;5.25;4.25;;;;;22.04;51.83;100831.16;5075694;28;45576;-78
2021/07/07 12:19:42;;;;;;;;;5.00;4.50;;;;;22.09;52.10;100833.28;5075491;28;45661;-79
2021/07/07 12:22:10;;;;;;;;;5.00;4.50;;;;;22.09;52.31;100834.13;5075514;28;46828;-78
2021/07/07 12:24:40;;;;;;;;;8.00;7.25;;;;;22.11;52.04;100837.47;5075352;28;46056;-77
2021/07/07 12:30:26;;;;;;;;;5.75;5.75;;;;;22.04;51.63;100820.47;5075070;28;45689;-77
2021/07/07 12:32:53;;;;;;;;;5.25;4.00;;;;;22.12;51.82;100838.28;5075250;28;45668;-78
2021/07/07 12:35:19;;;;;;;;;5.25;5.25;;;;;22.10;51.91;100846.47;5073973;28;46721;-77
2021/07/07 12:37:44;;;;;;;;;5.50;5.25;;;;;22.10;51.64;100849.13;5075325;28;45603;-80
2021/07/07 12:40:11;;;;;;;;;5.00;4.75;;;;;22.11;51.81;100850.81;5075511;28;45776;-78
2021/07/07 12:46:06;;;;;;;;;5.75;5.25;;;;;22.21;51.68;100845.22;5074602;28;45565;-78
2021/07/07 12:48:51;;;;;;;;;5.00;4.25;;;;;22.28;52.10;100837.34;5074805;28;45692;-79
2021/07/07 12:51:29;;;;;;;;;6.50;6.00;;;;;22.30;52.24;100838.78;5074762;28;45598;-79